sensor_id;sensor_type;location;lat;lon;timestamp;pressure;altitude;pressure_sealevel;temperature
45850;BMP180;10739;52.198;20.908;2022-12-13T00:01:26;99267.00;;;1.40
45850;BMP180;10739;52.198;20.908;2022-12-13T00:03:58;99266.00;;;1.50
45850;BMP180;10739;52.198;20.908;2022-12-13T00:06:25;99276.00;;;1.40
45850;BMP180;10739;52.198;20.908;2022-12-13T00:08:52;99270.00;;;1.80
45850;BMP180;10739;52.198;20.908;2022-12-13T00:11:19;99273.00;;;2.10
45850;BMP180;10739;52.198;20.908;2022-12-13T00:13:46;99269.00;;;1.60
45850;BMP180;10739;52.198;20.908;2022-12-13T00:16:16;99264.00;;;1.90
45850;BMP180;10739;52.198;20.908;2022-12-13T00:18:46;99264.00;;;1.90
45850;BMP180;10739;52.198;20.908;2022-12-13T00:21:16;99257.00;;;2.20
45850;BMP180;10739;52.198;20.908;2022-12-13T00:23:44;99271.00;;;2.10
45850;BMP180;10739;52.198;20.908;2022-12-13T00:26:17;99277.00;;;1.50
45850;BMP180;10739;52.198;20.908;2022-12-13T00:28:45;99266.00;;;1.60
45850;BMP180;10739;52.198;20.908;2022-12-13T00:31:15;99281.00;;;1.50
45850;BMP180;10739;52.198;20.908;2022-12-13T00:33:42;99284.00;;;1.50
45850;BMP180;10739;52.198;20.908;2022-12-13T00:36:08;99286.00;;;1.30
45850;BMP180;10739;52.198;20.908;2022-12-13T00:38:36;99286.00;;;1.70
45850;BMP180;10739;52.198;20.908;2022-12-13T00:41:19;99282.00;;;2.00
45850;BMP180;10739;52.198;20.908;2022-12-13T00:43:45;99285.00;;;1.60
45850;BMP180;10739;52.198;20.908;2022-12-13T00:46:15;99284.00;;;1.80
45850;BMP180;10739;52.198;20.908;2022-12-13T00:48:43;99300.00;;;1.30
45850;BMP180;10739;52.198;20.908;2022-12-13T00:51:13;99292.00;;;1.30
45850;BMP180;10739;52.198;20.908;2022-12-13T00:53:39;99300.00;;;1.30
45850;BMP180;10739;52.198;20.908;2022-12-13T00:56:16;99299.00;;;1.40
45850;BMP180;10739;52.198;20.908;2022-12-13T00:58:43;99305.00;;;1.40
45850;BMP180;10739;52.198;20.908;2022-12-13T01:01:12;99310.00;;;1.40
45850;BMP180;10739;52.198;20.908;2022-12-13T01:03:39;99312.00;;;2.10
45850;BMP180;10739;52.198;20.908;2022-12-13T01:06:15;99309.00;;;1.70
45850;BMP180;10739;52.198;20.908;2022-12-13T01:08:43;99306.00;;;1.90
45850;BMP180;10739;52.198;20.908;2022-12-13T01:11:11;99310.00;;;1.70
45850;BMP180;10739;52.198;20.908;2022-12-13T01:13:38;99323.00;;;2.00
45850;BMP180;10739;52.198;20.908;2022-12-13T01:16:06;99309.00;;;2.10
45850;BMP180;10739;52.198;20.908;2022-12-13T01:18:34;99311.00;;;1.70
45850;BMP180;10739;52.198;20.908;2022-12-13T01:23:33;99321.00;;;1.80
45850;BMP180;10739;52.198;20.908;2022-12-13T01:26:05;99320.00;;;1.30
45850;BMP180;10739;52.198;20.908;2022-12-13T01:28:32;99324.00;;;1.30
45850;BMP180;10739;52.198;20.908;2022-12-13T01:31:04;99322.00;;;1.20
45850;BMP180;10739;52.198;20.908;2022-12-13T01:33:31;99324.00;;;1.70
45850;BMP180;10739;52.198;20.908;2022-12-13T01:36:01;99330.00;;;1.60
45850;BMP180;10739;52.198;20.908;2022-12-13T01:38:28;99328.00;;;1.40
45850;BMP180;10739;52.198;20.908;2022-12-13T01:40:55;99343.00;;;1.00
45850;BMP180;10739;52.198;20.908;2022-12-13T01:43:27;99342.00;;;1.30
45850;BMP180;10739;52.198;20.908;2022-12-13T01:45:54;99342.00;;;1.30
45850;BMP180;10739;52.198;20.908;2022-12-13T01:48:28;99344.00;;;1.30
45850;BMP180;10739;52.198;20.908;2022-12-13T01:51:01;99352.00;;;1.50
45850;BMP180;10739;52.198;20.908;2022-12-13T01:53:36;99342.00;;;1.70
45850;BMP180;10739;52.198;20.908;2022-12-13T01:56:09;99338.00;;;2.00
45850;BMP180;10739;52.198;20.908;2022-12-13T01:58:38;99344.00;;;1.70
45850;BMP180;10739;52.198;20.908;2022-12-13T02:01:05;99353.00;;;1.40
45850;BMP180;10739;52.198;20.908;2022-12-13T02:03:32;99345.00;;;1.20
45850;BMP180;10739;52.198;20.908;2022-12-13T02:06:27;99359.00;;;1.50
45850;BMP180;10739;52.198;20.908;2022-12-13T02:08:56;99354.00;;;1.40
45850;BMP180;10739;52.198;20.908;2022-12-13T02:11:22;99354.00;;;1.20
45850;BMP180;10739;52.198;20.908;2022-12-13T02:13:49;99347.00;;;1.10
45850;BMP180;10739;52.198;20.908;2022-12-13T02:17:11;99356.00;;;1.00
45850;BMP180;10739;52.198;20.908;2022-12-13T02:23:11;99345.00;;;1.90
45850;BMP180;10739;52.198;20.908;2022-12-13T02:26:28;99338.00;;;1.80
45850;BMP180;10739;52.198;20.908;2022-12-13T02:32:15;99345.00;;;1.60
45850;BMP180;10739;52.198;20.908;2022-12-13T02:34:57;99343.00;;;1.60
45850;BMP180;10739;52.198;20.908;2022-12-13T02:38:06;99335.00;;;2.30
45850;BMP180;10739;52.198;20.908;2022-12-13T02:40:53;99332.00;;;2.40
45850;BMP180;10739;52.198;20.908;2022-12-13T02:43:57;99335.00;;;2.40
45850;BMP180;10739;52.198;20.908;2022-12-13T02:46:28;99346.00;;;1.70
45850;BMP180;10739;52.198;20.908;2022-12-13T02:48:58;99346.00;;;1.70
45850;BMP180;10739;52.198;20.908;2022-12-13T02:51:26;99349.00;;;1.60
45850;BMP180;10739;52.198;20.908;2022-12-13T02:53:53;99353.00;;;1.80
45850;BMP180;10739;52.198;20.908;2022-12-13T02:56:19;99360.00;;;1.60
45850;BMP180;10739;52.198;20.908;2022-12-13T02:58:51;99353.00;;;1.80
45850;BMP180;10739;52.198;20.908;2022-12-13T03:01:46;99362.00;;;1.90
45850;BMP180;10739;52.198;20.908;2022-12-13T03:07:24;99361.00;;;1.70
45850;BMP180;10739;52.198;20.908;2022-12-13T03:10:34;99365.00;;;2.00
45850;BMP180;10739;52.198;20.908;2022-12-13T03:13:09;99365.00;;;2.30
45850;BMP180;10739;52.198;20.908;2022-12-13T03:15:59;99356.00;;;2.40
45850;BMP180;10739;52.198;20.908;2022-12-13T03:18:30;99368.00;;;2.40
45850;BMP180;10739;52.198;20.908;2022-12-13T03:21:05;99363.00;;;2.50
45850;BMP180;10739;52.198;20.908;2022-12-13T03:23:32;99365.00;;;2.60
45850;BMP180;10739;52.198;20.908;2022-12-13T03:26:08;99357.00;;;2.50
45850;BMP180;10739;52.198;20.908;2022-12-13T03:28:37;99356.00;;;1.90
45850;BMP180;10739;52.198;20.908;2022-12-13T03:31:04;99359.00;;;2.10
45850;BMP180;10739;52.198;20.908;2022-12-13T03:33:31;99356.00;;;1.90
45850;BMP180;10739;52.198;20.908;2022-12-13T03:35:59;99354.00;;;1.90
45850;BMP180;10739;52.198;20.908;2022-12-13T03:38:28;99363.00;;;2.20
45850;BMP180;10739;52.198;20.908;2022-12-13T03:41:00;99362.00;;;2.20
45850;BMP180;10739;52.198;20.908;2022-12-13T03:43:28;99361.00;;;2.10
45850;BMP180;10739;52.198;20.908;2022-12-13T03:45:54;99360.00;;;2.40
45850;BMP180;10739;52.198;20.908;2022-12-13T03:48:21;99366.00;;;2.20
45850;BMP180;10739;52.198;20.908;2022-12-13T03:50:49;99362.00;;;1.70
45850;BMP180;10739;52.198;20.908;2022-12-13T03:53:15;99355.00;;;2.00
45850;BMP180;10739;52.198;20.908;2022-12-13T03:55:41;99370.00;;;2.50
45850;BMP180;10739;52.198;20.908;2022-12-13T03:58:08;99366.00;;;2.20
45850;BMP180;10739;52.198;20.908;2022-12-13T04:00:34;99378.00;;;2.30
45850;BMP180;10739;52.198;20.908;2022-12-13T04:03:00;99377.00;;;1.80
45850;BMP180;10739;52.198;20.908;2022-12-13T04:05:26;99367.00;;;2.10
45850;BMP180;10739;52.198;20.908;2022-12-13T04:07:53;99369.00;;;1.90
45850;BMP180;10739;52.198;20.908;2022-12-13T04:10:19;99373.00;;;2.30
45850;BMP180;10739;52.198;20.908;2022-12-13T04:12:45;99373.00;;;2.40
45850;BMP180;10739;52.198;20.908;2022-12-13T04:15:31;99381.00;;;1.90
45850;BMP180;10739;52.198;20.908;2022-12-13T04:17:57;99378.00;;;1.90
45850;BMP180;10739;52.198;20.908;2022-12-13T04:20:23;99381.00;;;2.10
45850;BMP180;10739;52.198;20.908;2022-12-13T04:22:49;99381.00;;;1.90
45850;BMP180;10739;52.198;20.908;2022-12-13T04:25:15;99382.00;;;2.10
45850;BMP180;10739;52.198;20.908;2022-12-13T04:27:42;99392.00;;;2.20
45850;BMP180;10739;52.198;20.908;2022-12-13T04:30:09;99384.00;;;2.20
45850;BMP180;10739;52.198;20.908;2022-12-13T04:32:35;99386.00;;;2.50
45850;BMP180;10739;52.198;20.908;2022-12-13T04:35:01;99386.00;;;2.20
45850;BMP180;10739;52.198;20.908;2022-12-13T04:37:28;99391.00;;;2.10
45850;BMP180;10739;52.198;20.908;2022-12-13T04:39:55;99398.00;;;1.90
45850;BMP180;10739;52.198;20.908;2022-12-13T04:42:21;99393.00;;;2.20
45850;BMP180;10739;52.198;20.908;2022-12-13T04:44:47;99400.00;;;2.40
45850;BMP180;10739;52.198;20.908;2022-12-13T04:47:15;99400.00;;;2.40
45850;BMP180;10739;52.198;20.908;2022-12-13T04:49:41;99406.00;;;1.80
45850;BMP180;10739;52.198;20.908;2022-12-13T04:52:09;99404.00;;;1.80
45850;BMP180;10739;52.198;20.908;2022-12-13T04:54:35;99407.00;;;2.30
45850;BMP180;10739;52.198;20.908;2022-12-13T04:57:05;99421.00;;;1.90
45850;BMP180;10739;52.198;20.908;2022-12-13T04:59:32;99409.00;;;2.20
45850;BMP180;10739;52.198;20.908;2022-12-13T05:01:59;99416.00;;;1.70
45850;BMP180;10739;52.198;20.908;2022-12-13T05:04:25;99408.00;;;1.70
45850;BMP180;10739;52.198;20.908;2022-12-13T05:06:52;99419.00;;;2.00
45850;BMP180;10739;52.198;20.908;2022-12-13T05:09:18;99421.00;;;2.10
45850;BMP180;10739;52.198;20.908;2022-12-13T05:11:44;99422.00;;;2.00
45850;BMP180;10739;52.198;20.908;2022-12-13T05:14:11;99413.00;;;2.20
45850;BMP180;10739;52.198;20.908;2022-12-13T05:16:37;99411.00;;;2.00
45850;BMP180;10739;52.198;20.908;2022-12-13T05:19:03;99413.00;;;2.10
45850;BMP180;10739;52.198;20.908;2022-12-13T05:21:30;99414.00;;;2.00
45850;BMP180;10739;52.198;20.908;2022-12-13T05:23:56;99408.00;;;2.10
45850;BMP180;10739;52.198;20.908;2022-12-13T05:26:22;99407.00;;;2.20
45850;BMP180;10739;52.198;20.908;2022-12-13T05:28:48;99426.00;;;2.00
45850;BMP180;10739;52.198;20.908;2022-12-13T05:31:14;99431.00;;;1.60
45850;BMP180;10739;52.198;20.908;2022-12-13T05:33:40;99431.00;;;1.20
45850;BMP180;10739;52.198;20.908;2022-12-13T05:36:08;99435.00;;;1.90
45850;BMP180;10739;52.198;20.908;2022-12-13T05:38:34;99438.00;;;1.90
45850;BMP180;10739;52.198;20.908;2022-12-13T05:41:01;99442.00;;;2.50
45850;BMP180;10739;52.198;20.908;2022-12-13T05:43:27;99449.00;;;2.30
45850;BMP180;10739;52.198;20.908;2022-12-13T05:45:53;99443.00;;;2.10
45850;BMP180;10739;52.198;20.908;2022-12-13T05:48:20;99454.00;;;1.90
45850;BMP180;10739;52.198;20.908;2022-12-13T05:50:46;99449.00;;;1.50
45850;BMP180;10739;52.198;20.908;2022-12-13T05:53:12;99454.00;;;1.70
45850;BMP180;10739;52.198;20.908;2022-12-13T05:55:38;99455.00;;;1.80
45850;BMP180;10739;52.198;20.908;2022-12-13T05:58:05;99461.00;;;1.30
45850;BMP180;10739;52.198;20.908;2022-12-13T06:00:31;99464.00;;;1.70
45850;BMP180;10739;52.198;20.908;2022-12-13T06:02:59;99456.00;;;1.70
45850;BMP180;10739;52.198;20.908;2022-12-13T06:05:25;99471.00;;;1.60
45850;BMP180;10739;52.198;20.908;2022-12-13T06:07:54;99476.00;;;1.30
45850;BMP180;10739;52.198;20.908;2022-12-13T06:10:20;99470.00;;;1.90
45850;BMP180;10739;52.198;20.908;2022-12-13T06:12:48;99477.00;;;1.40
45850;BMP180;10739;52.198;20.908;2022-12-13T06:15:14;99477.00;;;1.50
45850;BMP180;10739;52.198;20.908;2022-12-13T06:17:40;99482.00;;;1.40
45850;BMP180;10739;52.198;20.908;2022-12-13T06:20:07;99486.00;;;1.40
45850;BMP180;10739;52.198;20.908;2022-12-13T06:22:34;99484.00;;;1.20
45850;BMP180;10739;52.198;20.908;2022-12-13T06:25:00;99491.00;;;1.50
45850;BMP180;10739;52.198;20.908;2022-12-13T06:27:27;99488.00;;;1.70
45850;BMP180;10739;52.198;20.908;2022-12-13T06:29:53;99491.00;;;1.70
45850;BMP180;10739;52.198;20.908;2022-12-13T06:32:19;99507.00;;;1.60
45850;BMP180;10739;52.198;20.908;2022-12-13T06:34:46;99502.00;;;1.50
45850;BMP180;10739;52.198;20.908;2022-12-13T06:37:13;99510.00;;;1.30
45850;BMP180;10739;52.198;20.908;2022-12-13T06:39:39;99494.00;;;1.10
45850;BMP180;10739;52.198;20.908;2022-12-13T06:42:13;99507.00;;;1.00
45850;BMP180;10739;52.198;20.908;2022-12-13T06:44:40;99518.00;;;1.40
45850;BMP180;10739;52.198;20.908;2022-12-13T06:47:07;99512.00;;;1.30
45850;BMP180;10739;52.198;20.908;2022-12-13T06:49:33;99527.00;;;1.40
45850;BMP180;10739;52.198;20.908;2022-12-13T06:51:59;99522.00;;;1.10
45850;BMP180;10739;52.198;20.908;2022-12-13T06:54:25;99531.00;;;1.20
45850;BMP180;10739;52.198;20.908;2022-12-13T06:56:51;99541.00;;;0.90
45850;BMP180;10739;52.198;20.908;2022-12-13T06:59:18;99527.00;;;1.10
45850;BMP180;10739;52.198;20.908;2022-12-13T07:01:44;99534.00;;;1.30
45850;BMP180;10739;52.198;20.908;2022-12-13T07:04:11;99534.00;;;1.60
45850;BMP180;10739;52.198;20.908;2022-12-13T07:06:37;99555.00;;;0.90
45850;BMP180;10739;52.198;20.908;2022-12-13T07:09:04;99547.00;;;1.10
45850;BMP180;10739;52.198;20.908;2022-12-13T07:11:32;99561.00;;;1.80
45850;BMP180;10739;52.198;20.908;2022-12-13T07:13:59;99556.00;;;1.00
45850;BMP180;10739;52.198;20.908;2022-12-13T07:16:26;99561.00;;;0.70
45850;BMP180;10739;52.198;20.908;2022-12-13T07:18:58;99570.00;;;0.90
45850;BMP180;10739;52.198;20.908;2022-12-13T07:21:26;99571.00;;;0.40
45850;BMP180;10739;52.198;20.908;2022-12-13T07:23:53;99570.00;;;0.80
45850;BMP180;10739;52.198;20.908;2022-12-13T07:26:22;99565.00;;;1.40
45850;BMP180;10739;52.198;20.908;2022-12-13T07:28:49;99570.00;;;1.40
45850;BMP180;10739;52.198;20.908;2022-12-13T07:31:15;99566.00;;;1.50
45850;BMP180;10739;52.198;20.908;2022-12-13T07:33:41;99586.00;;;1.20
45850;BMP180;10739;52.198;20.908;2022-12-13T07:36:14;99587.00;;;0.60
45850;BMP180;10739;52.198;20.908;2022-12-13T07:38:41;99587.00;;;0.60
45850;BMP180;10739;52.198;20.908;2022-12-13T07:41:08;99596.00;;;1.30
45850;BMP180;10739;52.198;20.908;2022-12-13T07:43:35;99599.00;;;1.80
45850;BMP180;10739;52.198;20.908;2022-12-13T07:46:04;99591.00;;;1.00
45850;BMP180;10739;52.198;20.908;2022-12-13T07:48:32;99595.00;;;1.30
45850;BMP180;10739;52.198;20.908;2022-12-13T07:51:03;99604.00;;;0.40
45850;BMP180;10739;52.198;20.908;2022-12-13T07:53:30;99608.00;;;1.10
45850;BMP180;10739;52.198;20.908;2022-12-13T07:55:56;99612.00;;;1.50
45850;BMP180;10739;52.198;20.908;2022-12-13T07:58:22;99607.00;;;1.00
45850;BMP180;10739;52.198;20.908;2022-12-13T08:00:49;99610.00;;;0.30
45850;BMP180;10739;52.198;20.908;2022-12-13T08:03:15;99620.00;;;0.50
45850;BMP180;10739;52.198;20.908;2022-12-13T08:05:41;99616.00;;;0.40
45850;BMP180;10739;52.198;20.908;2022-12-13T08:08:08;99621.00;;;0.60
45850;BMP180;10739;52.198;20.908;2022-12-13T08:10:36;99620.00;;;1.10
45850;BMP180;10739;52.198;20.908;2022-12-13T08:13:04;99625.00;;;0.50
45850;BMP180;10739;52.198;20.908;2022-12-13T08:15:30;99630.00;;;1.00
45850;BMP180;10739;52.198;20.908;2022-12-13T08:17:57;99633.00;;;0.80
45850;BMP180;10739;52.198;20.908;2022-12-13T08:20:25;99630.00;;;0.30
45850;BMP180;10739;52.198;20.908;2022-12-13T08:22:57;99629.00;;;1.00
45850;BMP180;10739;52.198;20.908;2022-12-13T08:25:24;99633.00;;;1.00
45850;BMP180;10739;52.198;20.908;2022-12-13T08:27:51;99631.00;;;1.00
45850;BMP180;10739;52.198;20.908;2022-12-13T08:30:18;99633.00;;;1.20
45850;BMP180;10739;52.198;20.908;2022-12-13T08:32:44;99637.00;;;0.90
45850;BMP180;10739;52.198;20.908;2022-12-13T08:35:10;99633.00;;;1.40
45850;BMP180;10739;52.198;20.908;2022-12-13T08:37:36;99634.00;;;1.10
45850;BMP180;10739;52.198;20.908;2022-12-13T08:40:03;99643.00;;;0.80
45850;BMP180;10739;52.198;20.908;2022-12-13T08:42:31;99637.00;;;0.90
45850;BMP180;10739;52.198;20.908;2022-12-13T08:44:57;99642.00;;;1.20
45850;BMP180;10739;52.198;20.908;2022-12-13T08:47:25;99636.00;;;0.80
45850;BMP180;10739;52.198;20.908;2022-12-13T08:49:54;99648.00;;;1.40
45850;BMP180;10739;52.198;20.908;2022-12-13T08:52:22;99650.00;;;0.90
45850;BMP180;10739;52.198;20.908;2022-12-13T08:54:48;99649.00;;;0.80
45850;BMP180;10739;52.198;20.908;2022-12-13T08:57:15;99653.00;;;0.60
45850;BMP180;10739;52.198;20.908;2022-12-13T08:59:44;99658.00;;;0.60
45850;BMP180;10739;52.198;20.908;2022-12-13T09:02:13;99655.00;;;0.80
45850;BMP180;10739;52.198;20.908;2022-12-13T09:04:40;99663.00;;;0.50
45850;BMP180;10739;52.198;20.908;2022-12-13T09:07:07;99661.00;;;0.40
45850;BMP180;10739;52.198;20.908;2022-12-13T09:09:33;99661.00;;;0.50
45850;BMP180;10739;52.198;20.908;2022-12-13T09:12:00;99660.00;;;0.80
45850;BMP180;10739;52.198;20.908;2022-12-13T09:14:27;99667.00;;;1.20
45850;BMP180;10739;52.198;20.908;2022-12-13T09:16:53;99663.00;;;1.60
45850;BMP180;10739;52.198;20.908;2022-12-13T09:19:20;99675.00;;;0.70
45850;BMP180;10739;52.198;20.908;2022-12-13T09:21:47;99678.00;;;1.50
45850;BMP180;10739;52.198;20.908;2022-12-13T09:24:13;99672.00;;;1.20
45850;BMP180;10739;52.198;20.908;2022-12-13T09:26:40;99656.00;;;1.30
45850;BMP180;10739;52.198;20.908;2022-12-13T09:29:07;99668.00;;;0.90
45850;BMP180;10739;52.198;20.908;2022-12-13T09:31:34;99672.00;;;0.90
45850;BMP180;10739;52.198;20.908;2022-12-13T09:34:01;99675.00;;;1.20
45850;BMP180;10739;52.198;20.908;2022-12-13T09:36:28;99678.00;;;0.90
45850;BMP180;10739;52.198;20.908;2022-12-13T09:38:55;99673.00;;;0.80
45850;BMP180;10739;52.198;20.908;2022-12-13T09:42:02;99670.00;;;0.60
45850;BMP180;10739;52.198;20.908;2022-12-13T09:44:35;99670.00;;;1.20
45850;BMP180;10739;52.198;20.908;2022-12-13T09:47:11;99666.00;;;1.10
45850;BMP180;10739;52.198;20.908;2022-12-13T09:49:42;99679.00;;;1.20
45850;BMP180;10739;52.198;20.908;2022-12-13T09:52:15;99678.00;;;1.10
45850;BMP180;10739;52.198;20.908;2022-12-13T09:54:44;99669.00;;;1.30
45850;BMP180;10739;52.198;20.908;2022-12-13T09:57:24;99692.00;;;0.90
45850;BMP180;10739;52.198;20.908;2022-12-13T09:59:52;99686.00;;;1.10
45850;BMP180;10739;52.198;20.908;2022-12-13T10:02:27;99680.00;;;1.40
45850;BMP180;10739;52.198;20.908;2022-12-13T10:05:16;99683.00;;;0.90
45850;BMP180;10739;52.198;20.908;2022-12-13T10:07:43;99681.00;;;1.10
45850;BMP180;10739;52.198;20.908;2022-12-13T10:10:12;99691.00;;;0.80
45850;BMP180;10739;52.198;20.908;2022-12-13T10:12:43;99681.00;;;1.20
45850;BMP180;10739;52.198;20.908;2022-12-13T10:15:15;99688.00;;;1.60
45850;BMP180;10739;52.198;20.908;2022-12-13T10:17:43;99688.00;;;1.40
45850;BMP180;10739;52.198;20.908;2022-12-13T10:20:20;99689.00;;;0.80
45850;BMP180;10739;52.198;20.908;2022-12-13T10:22:46;99674.00;;;0.60
45850;BMP180;10739;52.198;20.908;2022-12-13T10:25:14;99687.00;;;1.10
45850;BMP180;10739;52.198;20.908;2022-12-13T10:27:45;99682.00;;;1.70
45850;BMP180;10739;52.198;20.908;2022-12-13T10:30:15;99692.00;;;1.00
45850;BMP180;10739;52.198;20.908;2022-12-13T10:32:52;99685.00;;;1.50
45850;BMP180;10739;52.198;20.908;2022-12-13T10:35:38;99678.00;;;1.30
45850;BMP180;10739;52.198;20.908;2022-12-13T10:40:43;99682.00;;;1.20
45850;BMP180;10739;52.198;20.908;2022-12-13T10:43:16;99694.00;;;1.00
45850;BMP180;10739;52.198;20.908;2022-12-13T10:48:45;99695.00;;;1.00
45850;BMP180;10739;52.198;20.908;2022-12-13T10:51:15;99687.00;;;1.00
45850;BMP180;10739;52.198;20.908;2022-12-13T10:53:58;99691.00;;;1.00
45850;BMP180;10739;52.198;20.908;2022-12-13T10:56:49;99676.00;;;1.20
45850;BMP180;10739;52.198;20.908;2022-12-13T10:59:58;99688.00;;;0.20
45850;BMP180;10739;52.198;20.908;2022-12-13T11:04:54;99678.00;;;1.00
45850;BMP180;10739;52.198;20.908;2022-12-13T11:07:32;99670.00;;;1.10
45850;BMP180;10739;52.198;20.908;2022-12-13T11:10:28;99671.00;;;1.60
45850;BMP180;10739;52.198;20.908;2022-12-13T11:13:01;99674.00;;;1.10
45850;BMP180;10739;52.198;20.908;2022-12-13T11:15:31;99670.00;;;0.50
45850;BMP180;10739;52.198;20.908;2022-12-13T11:18:01;99675.00;;;0.90
45850;BMP180;10739;52.198;20.908;2022-12-13T11:20:36;99670.00;;;1.00
45850;BMP180;10739;52.198;20.908;2022-12-13T11:23:20;99675.00;;;1.00
45850;BMP180;10739;52.198;20.908;2022-12-13T11:25:53;99674.00;;;1.50
45850;BMP180;10739;52.198;20.908;2022-12-13T11:28:31;99680.00;;;0.90
45850;BMP180;10739;52.198;20.908;2022-12-13T11:31:12;99674.00;;;0.90
45850;BMP180;10739;52.198;20.908;2022-12-13T11:40:18;99687.00;;;0.70
45850;BMP180;10739;52.198;20.908;2022-12-13T11:43:01;99685.00;;;1.10
45850;BMP180;10739;52.198;20.908;2022-12-13T11:45:41;99684.00;;;0.80
45850;BMP180;10739;52.198;20.908;2022-12-13T11:48:18;99696.00;;;1.00
45850;BMP180;10739;52.198;20.908;2022-12-13T11:50:49;99677.00;;;0.60
45850;BMP180;10739;52.198;20.908;2022-12-13T11:58:49;99685.00;;;0.60
45850;BMP180;10739;52.198;20.908;2022-12-13T12:02:17;99679.00;;;1.10
45850;BMP180;10739;52.198;20.908;2022-12-13T12:04:53;99686.00;;;0.20
45850;BMP180;10739;52.198;20.908;2022-12-13T12:07:46;99690.00;;;0.60
45850;BMP180;10739;52.198;20.908;2022-12-13T12:13:34;99693.00;;;0.50
45850;BMP180;10739;52.198;20.908;2022-12-13T12:18:42;99697.00;;;0.40
45850;BMP180;10739;52.198;20.908;2022-12-13T12:45:04;99721.00;;;1.10
45850;BMP180;10739;52.198;20.908;2022-12-13T12:50:50;99716.00;;;0.20
45850;BMP180;10739;52.198;20.908;2022-12-13T12:56:36;99719.00;;;0.60
45850;BMP180;10739;52.198;20.908;2022-12-13T12:59:32;99729.00;;;0.50
45850;BMP180;10739;52.198;20.908;2022-12-13T13:02:22;99736.00;;;0.40
45850;BMP180;10739;52.198;20.908;2022-12-13T13:05:01;99721.00;;;0.90
45850;BMP180;10739;52.198;20.908;2022-12-13T13:07:42;99730.00;;;0.70
45850;BMP180;10739;52.198;20.908;2022-12-13T13:10:10;99740.00;;;1.20
45850;BMP180;10739;52.198;20.908;2022-12-13T13:12:40;99734.00;;;0.80
45850;BMP180;10739;52.198;20.908;2022-12-13T13:17:59;99743.00;;;0.50
45850;BMP180;10739;52.198;20.908;2022-12-13T13:20:27;99749.00;;;0.70
45850;BMP180;10739;52.198;20.908;2022-12-13T13:22:57;99747.00;;;0.80
45850;BMP180;10739;52.198;20.908;2022-12-13T13:25:39;99752.00;;;0.80
45850;BMP180;10739;52.198;20.908;2022-12-13T13:28:16;99759.00;;;0.60
45850;BMP180;10739;52.198;20.908;2022-12-13T13:31:09;99761.00;;;0.60
45850;BMP180;10739;52.198;20.908;2022-12-13T13:33:50;99760.00;;;0.50
45850;BMP180;10739;52.198;20.908;2022-12-13T13:39:52;99766.00;;;0.70
45850;BMP180;10739;52.198;20.908;2022-12-13T13:42:29;99763.00;;;0.60
45850;BMP180;10739;52.198;20.908;2022-12-13T13:45:23;99759.00;;;0.50
45850;BMP180;10739;52.198;20.908;2022-12-13T14:14:49;99780.00;;;0.20
45850;BMP180;10739;52.198;20.908;2022-12-13T14:29:16;99792.00;;;0.00
45850;BMP180;10739;52.198;20.908;2022-12-13T14:31:46;99799.00;;;0.20
45850;BMP180;10739;52.198;20.908;2022-12-13T14:34:27;99797.00;;;0.40
45850;BMP180;10739;52.198;20.908;2022-12-13T14:37:04;99792.00;;;0.10
45850;BMP180;10739;52.198;20.908;2022-12-13T14:39:32;99788.00;;;0.40
45850;BMP180;10739;52.198;20.908;2022-12-13T14:42:25;99800.00;;;0.10
45850;BMP180;10739;52.198;20.908;2022-12-13T14:44:52;99792.00;;;0.40
45850;BMP180;10739;52.198;20.908;2022-12-13T14:47:20;99794.00;;;0.30
45850;BMP180;10739;52.198;20.908;2022-12-13T14:49:53;99799.00;;;0.00
45850;BMP180;10739;52.198;20.908;2022-12-13T14:52:23;99796.00;;;0.30
45850;BMP180;10739;52.198;20.908;2022-12-13T14:54:57;99804.00;;;-0.10
45850;BMP180;10739;52.198;20.908;2022-12-13T14:57:27;99808.00;;;0.50
45850;BMP180;10739;52.198;20.908;2022-12-13T14:59:57;99798.00;;;0.20
45850;BMP180;10739;52.198;20.908;2022-12-13T15:02:31;99805.00;;;0.10
45850;BMP180;10739;52.198;20.908;2022-12-13T15:05:00;99794.00;;;0.10
45850;BMP180;10739;52.198;20.908;2022-12-13T15:07:40;99803.00;;;0.10
45850;BMP180;10739;52.198;20.908;2022-12-13T15:10:37;99800.00;;;-0.10
45850;BMP180;10739;52.198;20.908;2022-12-13T15:13:06;99818.00;;;0.00
45850;BMP180;10739;52.198;20.908;2022-12-13T15:15:35;99808.00;;;0.40
45850;BMP180;10739;52.198;20.908;2022-12-13T15:18:22;99808.00;;;0.10
45850;BMP180;10739;52.198;20.908;2022-12-13T15:20:52;99813.00;;;0.30
45850;BMP180;10739;52.198;20.908;2022-12-13T15:26:16;99811.00;;;0.10
45850;BMP180;10739;52.198;20.908;2022-12-13T15:28:46;99807.00;;;-0.20
45850;BMP180;10739;52.198;20.908;2022-12-13T15:31:13;99812.00;;;0.20
45850;BMP180;10739;52.198;20.908;2022-12-13T15:33:40;99819.00;;;-0.20
45850;BMP180;10739;52.198;20.908;2022-12-13T15:36:21;99823.00;;;-0.10
45850;BMP180;10739;52.198;20.908;2022-12-13T15:41:24;99829.00;;;0.30
45850;BMP180;10739;52.198;20.908;2022-12-13T15:43:56;99828.00;;;0.30
45850;BMP180;10739;52.198;20.908;2022-12-13T15:46:30;99835.00;;;0.40
45850;BMP180;10739;52.198;20.908;2022-12-13T15:49:00;99834.00;;;0.30
45850;BMP180;10739;52.198;20.908;2022-12-13T15:51:28;99837.00;;;0.20
45850;BMP180;10739;52.198;20.908;2022-12-13T15:54:18;99833.00;;;0.30
45850;BMP180;10739;52.198;20.908;2022-12-13T15:59:33;99834.00;;;0.20
45850;BMP180;10739;52.198;20.908;2022-12-13T16:02:01;99826.00;;;-0.20
45850;BMP180;10739;52.198;20.908;2022-12-13T16:04:30;99840.00;;;0.20
45850;BMP180;10739;52.198;20.908;2022-12-13T16:07:00;99839.00;;;0.10
45850;BMP180;10739;52.198;20.908;2022-12-13T16:09:33;99837.00;;;0.00
45850;BMP180;10739;52.198;20.908;2022-12-13T16:12:04;99837.00;;;-0.10
45850;BMP180;10739;52.198;20.908;2022-12-13T16:19:41;99839.00;;;-0.20
45850;BMP180;10739;52.198;20.908;2022-12-13T16:22:07;99837.00;;;0.00
45850;BMP180;10739;52.198;20.908;2022-12-13T16:24:34;99832.00;;;0.00
45850;BMP180;10739;52.198;20.908;2022-12-13T16:27:00;99828.00;;;-0.10
45850;BMP180;10739;52.198;20.908;2022-12-13T16:29:26;99835.00;;;0.00
45850;BMP180;10739;52.198;20.908;2022-12-13T16:31:53;99833.00;;;0.10
45850;BMP180;10739;52.198;20.908;2022-12-13T16:34:22;99836.00;;;0.00
45850;BMP180;10739;52.198;20.908;2022-12-13T16:36:48;99835.00;;;-0.30
45850;BMP180;10739;52.198;20.908;2022-12-13T16:39:14;99830.00;;;-0.10